createdAt,value
2022-08-09T00:00:12.176Z,53.65
2022-08-09T00:01:14.475Z,55.92
2022-08-09T00:02:11.635Z,57.91
2022-08-09T00:03:10.885Z,55.02
2022-08-09T00:04:34.992Z,56.01
2022-08-09T00:06:18.145Z,57.00
2022-08-09T00:06:19.654Z,56.70
2022-08-09T00:07:11.573Z,57.07
2022-08-09T00:08:10.864Z,55.96
2022-08-09T00:09:10.572Z,55.94
2022-08-09T00:10:11.600Z,56.29
2022-08-09T00:11:24.572Z,55.58
2022-08-09T00:12:15.587Z,56.05
2022-08-09T00:13:16.868Z,56.36
2022-08-09T00:14:11.481Z,57.64
2022-08-09T00:15:14.624Z,58.08
2022-08-09T00:16:12.775Z,54.51
2022-08-09T00:17:10.480Z,56.41
2022-08-09T00:18:12.504Z,54.96
2022-08-09T00:19:10.639Z,54.02
2022-08-09T00:20:12.066Z,56.30
2022-08-09T00:21:10.441Z,57.88
2022-08-09T00:22:11.355Z,55.08
2022-08-09T00:23:55.288Z,56.66
2022-08-09T00:24:11.419Z,56.41
2022-08-09T00:25:10.410Z,55.77
2022-08-09T00:26:10.993Z,58.32
2022-08-09T00:27:10.396Z,56.31
2022-08-09T00:28:10.411Z,59.37
2022-08-09T00:29:12.458Z,55.43
2022-08-09T00:30:24.901Z,56.50
2022-08-09T00:31:55.711Z,59.18
2022-08-09T00:32:12.744Z,56.64
2022-08-09T00:33:10.356Z,55.65
2022-08-09T00:34:10.902Z,56.64
2022-08-09T00:35:10.346Z,57.59
2022-08-09T00:36:10.336Z,56.02
2022-08-09T00:37:10.323Z,57.31
2022-08-09T00:38:10.314Z,55.32
2022-08-09T00:39:16.807Z,56.72
2022-08-09T00:40:16.219Z,57.20
2022-08-09T00:41:11.302Z,57.65
2022-08-09T00:44:11.353Z,56.97
2022-08-09T00:44:16.063Z,56.13
2022-08-09T00:44:25.742Z,59.08
2022-08-09T00:45:16.043Z,57.62
2022-08-09T00:46:11.269Z,56.12
2022-08-09T00:47:15.316Z,57.56
2022-08-09T00:48:10.252Z,57.62
2022-08-09T00:49:11.245Z,57.19
2022-08-09T00:50:14.652Z,54.93
2022-08-09T00:51:12.844Z,53.92
2022-08-09T00:52:17.759Z,55.57
2022-08-09T00:53:11.827Z,57.94
2022-08-09T00:54:10.202Z,55.66
2022-08-09T00:55:10.366Z,54.66
2022-08-09T00:56:11.211Z,56.29
2022-08-09T00:57:11.067Z,57.70
2022-08-09T00:58:10.186Z,55.23
2022-08-09T00:59:10.192Z,54.85
2022-08-09T01:00:21.680Z,57.20
2022-08-09T01:01:11.204Z,55.41
2022-08-09T01:02:10.159Z,55.67
2022-08-09T01:03:10.142Z,57.92
2022-08-09T01:04:10.138Z,55.81
2022-08-09T01:05:14.227Z,55.65
2022-08-09T01:06:17.448Z,57.47
2022-08-09T01:07:12.371Z,57.91
2022-08-09T01:08:10.137Z,57.24
2022-08-09T01:09:10.947Z,55.26
2022-08-09T01:10:10.119Z,54.73
2022-08-09T01:11:10.095Z,59.17
2022-08-09T01:12:11.485Z,56.21
2022-08-09T01:13:11.676Z,55.70
2022-08-09T01:14:10.064Z,54.16
2022-08-09T01:15:17.613Z,54.55
2022-08-09T01:16:11.057Z,57.55
2022-08-09T01:17:11.002Z,57.55
2022-08-09T01:18:10.032Z,57.95
2022-08-09T01:19:17.027Z,55.21
2022-08-09T01:20:11.018Z,55.64
2022-08-09T01:21:10.171Z,58.06
2022-08-09T01:22:12.345Z,56.07
2022-08-09T01:24:00.541Z,57.82
2022-08-09T01:24:10.996Z,57.94
2022-08-09T01:25:09.990Z,54.74
2022-08-09T01:26:09.977Z,52.25
2022-08-09T01:27:09.992Z,58.12
2022-08-09T01:28:09.967Z,58.13
2022-08-09T01:29:09.956Z,57.25
2022-08-09T01:30:28.776Z,57.71
2022-08-09T01:31:10.941Z,60.27
2022-08-09T01:32:31.067Z,57.71
2022-08-09T01:33:10.953Z,58.64
2022-08-09T01:34:09.925Z,60.06
2022-08-09T01:35:28.316Z,58.01
2022-08-09T01:36:10.903Z,55.95
2022-08-09T01:37:09.905Z,54.65
2022-08-09T01:38:14.981Z,56.08
2022-08-09T01:39:09.942Z,55.70
2022-08-09T01:40:09.874Z,53.35
2022-08-09T01:41:09.873Z,56.17
2022-08-09T01:42:11.146Z,57.04
2022-08-09T01:43:09.870Z,59.16
2022-08-09T01:44:09.842Z,57.00
2022-08-09T01:45:09.844Z,55.61
2022-08-09T01:46:09.829Z,58.07
2022-08-09T01:47:11.684Z,59.82
2022-08-09T01:48:09.821Z,55.63
2022-08-09T01:49:12.765Z,57.71
2022-08-09T01:50:09.801Z,56.07
2022-08-09T01:51:09.987Z,56.29
2022-08-09T01:52:09.790Z,56.65
2022-08-09T01:53:19.988Z,55.03
2022-08-09T01:54:09.774Z,57.03
2022-08-09T01:55:09.792Z,54.37
2022-08-09T01:56:09.761Z,56.57
2022-08-09T01:57:09.751Z,51.24
2022-08-09T01:58:09.741Z,57.94
2022-08-09T01:59:09.762Z,57.25
2022-08-09T02:00:35.038Z,53.98
2022-08-09T02:01:10.760Z,56.41
2022-08-09T02:02:09.802Z,56.41
2022-08-09T02:03:11.348Z,55.32
2022-08-09T02:04:09.720Z,55.06
2022-08-09T02:05:15.344Z,56.49
2022-08-09T02:06:10.702Z,58.64
2022-08-09T02:07:15.332Z,55.20
2022-08-09T02:08:41.402Z,55.97
2022-08-09T02:09:10.667Z,56.55
2022-08-09T02:10:09.677Z,57.57
2022-08-09T02:11:16.622Z,58.31
2022-08-09T02:12:10.639Z,56.10
2022-08-09T02:13:09.643Z,55.96
2022-08-09T02:14:09.615Z,56.89
2022-08-09T02:15:15.321Z,56.62
2022-08-09T02:16:10.629Z,57.14
2022-08-09T02:17:15.042Z,55.98
2022-08-09T02:18:10.914Z,58.44
2022-08-09T02:19:09.586Z,57.08
2022-08-09T02:20:09.606Z,59.70
2022-08-09T02:21:09.574Z,57.51
2022-08-09T02:22:10.581Z,57.86
2022-08-09T02:23:09.561Z,54.17
2022-08-09T02:24:09.539Z,57.06
2022-08-09T02:25:09.539Z,59.14
2022-08-09T02:26:25.065Z,57.60
2022-08-09T02:27:10.529Z,56.17
2022-08-09T02:28:09.809Z,60.80
2022-08-09T02:29:09.513Z,59.01
2022-08-09T02:30:09.500Z,58.22
2022-08-09T02:31:09.497Z,56.32
2022-08-09T02:32:09.483Z,58.88
2022-08-09T02:33:14.207Z,56.02
2022-08-09T02:34:13.602Z,59.34
2022-08-09T02:35:17.320Z,58.69
2022-08-09T02:36:10.510Z,58.89
2022-08-09T02:37:11.962Z,59.23
2022-08-09T02:38:09.437Z,60.32
2022-08-09T02:39:14.455Z,60.25
2022-08-09T02:40:10.753Z,57.75
2022-08-09T02:41:09.430Z,59.85
2022-08-09T02:42:09.434Z,56.61
2022-08-09T02:43:09.411Z,59.77
2022-08-09T02:44:13.716Z,57.29
2022-08-09T02:45:10.393Z,58.56
2022-08-09T02:46:09.385Z,60.70
2022-08-09T02:47:09.810Z,59.32
2022-08-09T02:48:19.411Z,57.82
2022-08-09T02:49:10.397Z,58.50
2022-08-09T02:50:09.362Z,60.01
2022-08-09T02:51:09.357Z,59.51
2022-08-09T02:52:09.336Z,58.76
2022-08-09T02:53:09.337Z,60.78
2022-08-09T02:54:09.335Z,59.31
2022-08-09T02:55:19.837Z,58.87
2022-08-09T02:56:10.313Z,60.25
2022-08-09T02:57:13.636Z,60.53
2022-08-09T02:58:36.131Z,61.91
2022-08-09T02:59:12.807Z,60.68
2022-08-09T03:00:20.604Z,59.74
2022-08-09T03:01:11.017Z,61.62
2022-08-09T03:02:12.040Z,58.64
2022-08-09T03:03:09.355Z,61.79
2022-08-09T03:04:16.628Z,58.66
2022-08-09T03:05:10.265Z,59.45
2022-08-09T03:06:10.237Z,60.60
2022-08-09T03:07:14.288Z,60.34
2022-08-09T03:08:09.244Z,60.26
2022-08-09T03:09:09.223Z,60.20
2022-08-09T03:10:09.209Z,59.44
2022-08-09T03:11:10.226Z,59.21
2022-08-09T03:12:10.880Z,60.44
2022-08-09T03:13:09.926Z,59.13
2022-08-09T03:14:09.978Z,57.36
2022-08-09T03:15:09.171Z,59.27
2022-08-09T03:16:09.161Z,59.95
2022-08-09T03:17:09.144Z,61.36
2022-08-09T03:18:10.849Z,60.88
2022-08-09T03:19:14.017Z,60.72
2022-08-09T03:20:11.231Z,59.08
2022-08-09T03:21:09.127Z,60.17
2022-08-09T03:22:12.051Z,58.84
2022-08-09T03:23:15.076Z,61.35
2022-08-09T03:24:10.217Z,60.01
2022-08-09T03:25:26.850Z,59.77
2022-08-09T03:26:10.087Z,60.66
2022-08-09T03:27:09.079Z,61.68
2022-08-09T03:28:11.210Z,61.46
2022-08-09T03:29:09.801Z,59.29
2022-08-09T03:30:09.057Z,62.19
2022-08-09T03:31:10.433Z,60.96
2022-08-09T03:32:10.048Z,60.30
2022-08-09T03:33:12.973Z,60.40
2022-08-09T03:34:10.019Z,59.22
2022-08-09T03:35:24.205Z,60.37
2022-08-09T03:36:12.613Z,60.72
2022-08-09T03:37:29.231Z,61.97
2022-08-09T03:38:09.983Z,60.37
2022-08-09T03:39:10.020Z,60.02
2022-08-09T03:40:08.957Z,61.85
2022-08-09T03:41:08.953Z,61.29
2022-08-09T03:42:08.955Z,61.81
2022-08-09T03:43:08.937Z,61.62
2022-08-09T03:44:09.210Z,61.50
2022-08-09T03:45:08.923Z,61.23
2022-08-09T03:46:20.111Z,61.67
2022-08-09T03:47:08.933Z,60.35
2022-08-09T03:48:08.896Z,59.19
2022-08-09T03:49:09.665Z,60.27
2022-08-09T03:50:08.891Z,60.09
2022-08-09T03:51:55.661Z,60.73
2022-08-09T03:52:09.893Z,61.61
2022-08-09T03:53:10.695Z,63.07
2022-08-09T03:54:10.911Z,62.61
2022-08-09T03:55:09.748Z,61.82
2022-08-09T03:56:08.832Z,60.34
2022-08-09T03:57:17.987Z,60.61
2022-08-09T03:58:16.746Z,62.12
2022-08-09T03:59:08.828Z,61.66
2022-08-09T04:00:08.824Z,61.33
2022-08-09T04:01:08.829Z,60.57
2022-08-09T04:02:08.779Z,63.37
2022-08-09T04:03:08.781Z,62.60
2022-08-09T04:04:14.546Z,61.66
2022-08-09T04:05:17.297Z,62.10
2022-08-09T04:06:08.767Z,63.19
2022-08-09T04:07:08.744Z,62.48
2022-08-09T04:08:08.843Z,61.25
2022-08-09T04:09:16.073Z,61.98
2022-08-09T04:10:08.713Z,61.43
2022-08-09T04:11:11.138Z,62.12
2022-08-09T04:12:08.700Z,62.94
2022-08-09T04:13:08.709Z,62.82
2022-08-09T04:14:52.952Z,62.38
2022-08-09T04:15:17.150Z,61.97
2022-08-09T04:16:20.692Z,61.86
2022-08-09T04:17:09.658Z,61.49
2022-08-09T04:18:08.643Z,61.84
2022-08-09T04:19:10.927Z,61.49
2022-08-09T04:20:08.641Z,60.93
2022-08-09T04:21:08.633Z,64.52
2022-08-09T04:22:08.635Z,61.48
2022-08-09T04:23:09.701Z,61.80
2022-08-09T04:24:08.602Z,61.74
2022-08-09T04:25:08.590Z,63.58
2022-08-09T04:26:08.579Z,63.04
2022-08-09T04:27:08.894Z,61.44
2022-08-09T04:28:08.580Z,60.20
2022-08-09T04:29:12.195Z,63.07
2022-08-09T04:30:09.551Z,64.13
2022-08-09T04:31:09.679Z,63.98
2022-08-09T04:32:08.531Z,61.77
2022-08-09T04:33:08.553Z,62.02
2022-08-09T04:34:08.526Z,61.20
2022-08-09T04:35:08.762Z,63.61
2022-08-09T04:36:08.502Z,62.56
2022-08-09T04:37:08.499Z,63.03
2022-08-09T04:38:08.475Z,62.74
2022-08-09T04:39:08.585Z,64.22
2022-08-09T04:40:08.486Z,63.61
2022-08-09T04:41:11.826Z,62.67
2022-08-09T04:42:09.404Z,62.54
2022-08-09T04:43:08.447Z,62.86
2022-08-09T04:44:11.263Z,63.09
2022-08-09T04:45:08.425Z,63.84
2022-08-09T04:46:08.437Z,62.13
2022-08-09T04:47:09.417Z,60.51
2022-08-09T04:48:10.556Z,60.45
2022-08-09T04:49:08.395Z,63.03
2022-08-09T04:50:09.390Z,61.49
2022-08-09T04:51:08.380Z,61.73
2022-08-09T04:52:09.618Z,61.00
2022-08-09T04:53:13.251Z,63.67
2022-08-09T04:54:09.354Z,62.83
2022-08-09T04:55:11.862Z,61.65
2022-08-09T04:56:08.338Z,62.06
2022-08-09T04:57:09.388Z,63.25
2022-08-09T04:58:09.444Z,60.86
2022-08-09T04:59:15.331Z,59.13
2022-08-09T05:00:09.323Z,58.04
2022-08-09T05:01:16.351Z,61.10
2022-08-09T05:02:09.286Z,60.17
2022-08-09T05:03:30.308Z,60.95
2022-08-09T05:04:09.347Z,59.79
2022-08-09T05:05:10.128Z,58.79
2022-08-09T05:06:08.306Z,59.58
2022-08-09T05:07:08.250Z,60.22
2022-08-09T05:08:09.272Z,59.79
2022-08-09T05:09:08.234Z,61.06
2022-08-09T05:10:08.228Z,60.08
2022-08-09T05:11:08.217Z,60.27
2022-08-09T05:12:08.211Z,61.36
2022-08-09T05:13:08.202Z,58.30
2022-08-09T05:14:08.216Z,61.19
2022-08-09T05:15:11.620Z,59.48
2022-08-09T05:16:10.095Z,59.23
2022-08-09T05:17:15.246Z,62.30
2022-08-09T05:18:39.147Z,60.42
2022-08-09T05:19:09.182Z,60.42
2022-08-09T05:20:08.148Z,58.83
2022-08-09T05:21:10.105Z,59.51
2022-08-09T05:22:08.136Z,60.37
2022-08-09T05:23:58.340Z,59.26
2022-08-09T05:24:09.460Z,60.27
2022-08-09T05:25:08.137Z,58.85
2022-08-09T05:26:08.108Z,57.87
2022-08-09T05:27:08.097Z,59.70
2022-08-09T05:28:09.090Z,59.78
2022-08-09T05:29:17.530Z,58.70
2022-08-09T05:30:09.106Z,57.88
2022-08-09T05:31:09.597Z,59.15
2022-08-09T05:32:08.092Z,59.37
2022-08-09T05:33:09.531Z,59.69
2022-08-09T05:34:08.050Z,57.84
2022-08-09T05:35:08.049Z,59.12
2022-08-09T05:36:08.043Z,58.75
2022-08-09T05:37:11.447Z,57.42
2022-08-09T05:38:08.026Z,59.36
2022-08-09T05:39:08.084Z,59.23
2022-08-09T05:40:08.083Z,58.61
2022-08-09T05:41:12.603Z,58.95
2022-08-09T05:42:07.996Z,58.75
2022-08-09T05:43:07.988Z,59.66
2022-08-09T05:44:08.003Z,58.97
2022-08-09T05:45:08.001Z,57.86
2022-08-09T05:46:07.998Z,58.45
2022-08-09T05:47:07.975Z,58.24
2022-08-09T05:48:07.960Z,59.23
2022-08-09T05:49:07.946Z,57.79
2022-08-09T05:50:23.463Z,57.06
2022-08-09T05:51:30.068Z,57.12
2022-08-09T05:52:08.930Z,58.54
2022-08-09T05:53:11.741Z,58.88
2022-08-09T05:54:08.911Z,58.56
2022-08-09T05:55:08.499Z,57.78
2022-08-09T05:56:07.904Z,57.54
2022-08-09T05:57:07.921Z,58.68
2022-08-09T05:58:07.874Z,58.04
2022-08-09T05:59:08.879Z,57.43
2022-08-09T06:00:07.877Z,56.56
2022-08-09T06:01:07.885Z,58.30
2022-08-09T06:02:07.873Z,57.81
2022-08-09T06:03:10.816Z,57.86
2022-08-09T06:04:07.942Z,56.47
2022-08-09T06:05:07.841Z,56.54
2022-08-09T06:06:07.828Z,55.88
2022-08-09T06:07:07.830Z,56.03
2022-08-09T06:08:09.025Z,56.27
2022-08-09T06:09:23.167Z,56.26
2022-08-09T06:10:07.813Z,56.42
2022-08-09T06:11:17.533Z,58.01
2022-08-09T06:12:08.793Z,56.68
2022-08-09T06:13:18.959Z,56.88
2022-08-09T06:14:08.793Z,56.75
2022-08-09T06:15:09.943Z,55.90
2022-08-09T06:16:07.780Z,57.23
2022-08-09T06:17:09.282Z,56.14
2022-08-09T06:18:07.745Z,55.77
2022-08-09T06:19:07.743Z,57.11
2022-08-09T06:20:07.746Z,56.74
2022-08-09T06:21:07.766Z,56.75
2022-08-09T06:22:14.974Z,57.23
2022-08-09T06:23:08.740Z,55.75
2022-08-09T06:24:07.720Z,57.37
2022-08-09T06:25:08.644Z,55.11
2022-08-09T06:26:07.724Z,55.86
2022-08-09T06:27:07.689Z,55.55
2022-08-09T06:28:07.700Z,56.05
2022-08-09T06:29:07.686Z,55.38
2022-08-09T06:30:09.740Z,54.75
2022-08-09T06:31:07.671Z,56.39
2022-08-09T06:32:24.662Z,55.64
2022-08-09T06:33:30.497Z,55.59
2022-08-09T06:34:09.330Z,56.46
2022-08-09T06:35:07.633Z,55.51
2022-08-09T06:36:07.627Z,55.78
2022-08-09T06:37:10.019Z,56.89
2022-08-09T06:38:07.613Z,55.85
2022-08-09T06:39:09.344Z,56.02
2022-08-09T06:40:17.723Z,56.50
2022-08-09T06:41:18.225Z,54.85
2022-08-09T06:42:11.497Z,55.38
2022-08-09T06:43:10.388Z,55.27
2022-08-09T06:44:07.587Z,55.93
2022-08-09T06:46:05.019Z,55.10
2022-08-09T06:46:11.023Z,54.08
2022-08-09T06:47:08.448Z,55.00
2022-08-09T06:48:07.590Z,55.87
2022-08-09T06:49:07.559Z,55.61
2022-08-09T06:50:14.704Z,55.47
2022-08-09T06:51:08.535Z,55.68
2022-08-09T06:52:07.895Z,55.68
2022-08-09T06:53:07.532Z,55.00
2022-08-09T06:54:09.119Z,56.27
2022-08-09T06:55:10.189Z,55.72
2022-08-09T06:56:09.064Z,55.58
2022-08-09T06:57:08.243Z,55.69
2022-08-09T06:58:07.515Z,55.97
2022-08-09T07:00:50.915Z,56.34
2022-08-09T07:00:51.633Z,55.16
2022-08-09T07:01:08.469Z,55.57
2022-08-09T07:02:07.466Z,55.36
2022-08-09T07:03:07.469Z,55.49
2022-08-09T07:04:07.448Z,55.99
2022-08-09T07:05:07.465Z,54.79
2022-08-09T07:06:07.437Z,56.11
2022-08-09T07:07:07.427Z,55.17
2022-08-09T07:08:07.426Z,55.84
2022-08-09T07:09:07.426Z,56.08
2022-08-09T07:10:24.054Z,55.97
2022-08-09T07:11:08.424Z,55.58
2022-08-09T07:12:07.431Z,56.00
2022-08-09T07:13:27.332Z,56.37
2022-08-09T07:14:08.763Z,56.18
2022-08-09T07:16:39.377Z,54.89
2022-08-09T07:16:42.295Z,55.20
2022-08-09T07:17:08.066Z,56.40
2022-08-09T07:18:07.372Z,56.15
2022-08-09T07:19:07.675Z,56.03
2022-08-09T07:20:08.052Z,56.28
2022-08-09T07:21:07.658Z,56.67
2022-08-09T07:22:07.325Z,56.78
2022-08-09T07:23:19.246Z,56.17
2022-08-09T07:24:08.330Z,56.48
2022-08-09T07:25:09.618Z,56.56
2022-08-09T07:26:07.300Z,55.71
2022-08-09T07:27:23.861Z,56.47
2022-08-09T07:28:07.292Z,55.90
2022-08-09T07:29:11.721Z,55.76
2022-08-09T07:30:08.291Z,55.29
2022-08-09T07:31:07.264Z,56.06
2022-08-09T07:32:07.268Z,56.58
2022-08-09T07:33:12.323Z,57.60
2022-08-09T07:34:08.251Z,56.33
2022-08-09T07:35:11.682Z,56.52
2022-08-09T07:36:07.231Z,57.11
2022-08-09T07:37:15.551Z,57.35
2022-08-09T07:38:08.223Z,56.16
2022-08-09T07:39:11.862Z,57.72
2022-08-09T07:40:08.259Z,64.74
2022-08-09T07:41:11.509Z,65.07
2022-08-09T07:42:08.191Z,57.15
2022-08-09T07:43:16.408Z,56.98
2022-08-09T07:44:08.174Z,58.05
2022-08-09T07:45:22.796Z,57.16
2022-08-09T07:46:08.187Z,56.53
2022-08-09T07:47:07.836Z,57.12
2022-08-09T07:48:07.166Z,55.93
2022-08-09T07:49:08.253Z,57.28
2022-08-09T07:50:09.462Z,57.02
2022-08-09T07:52:03.106Z,56.06
2022-08-09T07:52:17.096Z,56.38
2022-08-09T07:53:08.122Z,56.85
2022-08-09T07:54:08.657Z,57.27
2022-08-09T07:55:09.456Z,57.01
2022-08-09T07:56:07.093Z,55.86
2022-08-09T07:57:11.600Z,55.98
2022-08-09T07:58:13.107Z,56.32
2022-08-09T07:59:14.092Z,56.05
2022-08-09T08:00:08.681Z,56.92
2022-08-09T08:01:11.242Z,57.05
2022-08-09T08:02:07.154Z,55.95
2022-08-09T08:03:08.433Z,56.19
2022-08-09T08:04:10.546Z,56.93
2022-08-09T08:05:11.538Z,56.35
2022-08-09T08:06:08.027Z,55.44
2022-08-09T08:07:15.319Z,56.61
2022-08-09T08:09:00.513Z,55.76
2022-08-09T08:09:18.195Z,55.48
2022-08-09T08:10:08.806Z,56.07
2022-08-09T08:12:07.996Z,57.59
2022-08-09T08:12:09.403Z,56.41
2022-08-09T08:13:10.304Z,56.51
2022-08-09T08:14:06.969Z,57.23
2022-08-09T08:15:07.558Z,56.82
2022-08-09T08:16:06.970Z,56.92
2022-08-09T08:17:08.959Z,57.03
2022-08-09T08:18:06.948Z,57.02
2022-08-09T08:19:06.979Z,56.73
2022-08-09T08:20:13.248Z,55.52
2022-08-09T08:21:06.921Z,57.25
2022-08-09T08:22:06.912Z,56.74
2022-08-09T08:23:16.649Z,56.49
2022-08-09T08:24:11.862Z,55.56
2022-08-09T08:25:09.499Z,55.88
2022-08-09T08:26:11.564Z,55.79
2022-08-09T08:27:16.911Z,57.59
2022-08-09T08:28:07.901Z,56.89
2022-08-09T08:29:07.881Z,55.82
2022-08-09T08:30:06.863Z,56.92
2022-08-09T08:31:14.025Z,55.91
2022-08-09T08:32:06.881Z,55.64
2022-08-09T08:33:06.853Z,55.51
2022-08-09T08:34:08.774Z,55.98
2022-08-09T08:35:06.849Z,56.63
2022-08-09T08:36:06.822Z,56.58
2022-08-09T08:37:06.822Z,54.58
2022-08-09T08:38:11.539Z,56.29
2022-08-09T08:39:10.350Z,55.97
2022-08-09T08:40:06.889Z,56.44
2022-08-09T08:41:06.795Z,57.25
2022-08-09T08:42:06.800Z,56.63
2022-08-09T08:43:08.787Z,55.39
2022-08-09T08:44:06.769Z,55.97
2022-08-09T08:45:13.236Z,55.70
2022-08-09T08:46:32.246Z,56.44
2022-08-09T08:47:12.091Z,55.47
2022-08-09T08:48:10.272Z,55.98
2022-08-09T08:49:07.742Z,57.17
2022-08-09T08:50:07.731Z,56.44
2022-08-09T08:51:06.740Z,56.01
2022-08-09T08:52:10.352Z,56.94
2022-08-09T08:53:11.947Z,57.47
2022-08-09T08:54:06.687Z,56.94
2022-08-09T08:55:06.759Z,55.91
2022-08-09T08:56:06.675Z,57.43
2022-08-09T08:57:11.291Z,57.35
2022-08-09T08:58:06.665Z,57.70
2022-08-09T08:59:18.665Z,56.09
2022-08-09T09:00:13.123Z,57.98
2022-08-09T09:01:09.176Z,57.14
2022-08-09T09:02:07.653Z,56.58
2022-08-09T09:03:12.037Z,54.03
2022-08-09T09:04:07.634Z,56.64
2022-08-09T09:05:11.987Z,57.67
2022-08-09T09:06:06.627Z,57.09
2022-08-09T09:07:06.607Z,56.59
2022-08-09T09:08:06.633Z,55.72
2022-08-09T09:09:21.042Z,57.29
2022-08-09T09:10:09.144Z,57.51
2022-08-09T09:11:06.583Z,57.56
2022-08-09T09:12:10.313Z,57.53
2022-08-09T09:13:09.698Z,57.64
2022-08-09T09:14:06.558Z,57.13
2022-08-09T09:15:06.817Z,56.55
2022-08-09T09:16:07.051Z,55.98
2022-08-09T09:17:06.539Z,57.14
2022-08-09T09:18:06.532Z,56.87
2022-08-09T09:20:07.520Z,56.68
2022-08-09T09:21:06.508Z,57.25
2022-08-09T09:22:07.605Z,58.33
2022-08-09T09:23:07.489Z,57.02
2022-08-09T09:24:10.489Z,55.37
2022-08-09T09:26:03.275Z,56.52
2022-08-09T09:26:12.333Z,55.75
2022-08-09T09:27:07.517Z,56.46
2022-08-09T09:28:08.084Z,57.21
2022-08-09T09:29:11.121Z,57.26
2022-08-09T09:30:10.636Z,55.33
2022-08-09T09:31:06.467Z,56.27
2022-08-09T09:32:15.871Z,56.00
2022-08-09T09:33:15.958Z,55.35
2022-08-09T09:34:07.437Z,55.72
2022-08-09T09:35:09.379Z,56.10
2022-08-09T09:36:20.472Z,56.84
2022-08-09T09:37:07.397Z,55.58
2022-08-09T09:38:07.398Z,56.27
2022-08-09T09:39:07.436Z,56.60
2022-08-09T09:40:06.489Z,55.21
2022-08-09T09:41:06.387Z,55.46
2022-08-09T09:42:10.411Z,55.67
2022-08-09T09:43:06.370Z,56.57
2022-08-09T09:44:10.667Z,54.97
2022-08-09T09:45:06.355Z,55.54
2022-08-09T09:47:07.357Z,55.96
2022-08-09T09:48:06.333Z,55.00
2022-08-09T09:49:06.466Z,55.63
2022-08-09T09:50:17.070Z,55.14
2022-08-09T09:51:07.327Z,56.86
2022-08-09T09:52:06.299Z,55.69
2022-08-09T09:53:10.531Z,55.06
2022-08-09T09:54:17.121Z,56.06
2022-08-09T09:55:16.410Z,56.35
2022-08-09T09:56:07.273Z,55.00
2022-08-09T09:58:03.291Z,55.47
2022-08-09T09:58:15.715Z,55.39
2022-08-09T09:59:07.258Z,55.19
2022-08-09T10:00:06.243Z,56.22
2022-08-09T10:01:06.262Z,55.48
2022-08-09T10:02:07.229Z,55.81
2022-08-09T10:03:11.543Z,55.55
2022-08-09T10:04:09.614Z,55.73
2022-08-09T10:05:06.634Z,55.74
2022-08-09T10:06:06.210Z,56.88
2022-08-09T10:07:10.056Z,56.98
2022-08-09T10:08:27.411Z,56.25
2022-08-09T10:09:22.949Z,56.03
2022-08-09T10:10:07.175Z,55.22
2022-08-09T10:11:53.839Z,55.73
2022-08-09T10:12:26.869Z,56.26
2022-08-09T10:13:07.167Z,55.37
2022-08-09T10:14:07.051Z,54.61
2022-08-09T10:15:06.154Z,57.71
2022-08-09T10:16:55.531Z,56.33
2022-08-09T10:17:23.911Z,56.02
2022-08-09T10:18:07.119Z,56.05
2022-08-09T10:19:06.121Z,56.49
2022-08-09T10:20:06.116Z,55.91
2022-08-09T10:21:07.097Z,56.88
2022-08-09T10:22:06.087Z,55.68
2022-08-09T10:23:06.093Z,56.37
2022-08-09T10:24:06.076Z,55.30
2022-08-09T10:25:07.044Z,54.77
2022-08-09T10:26:10.540Z,56.28
2022-08-09T10:27:10.261Z,54.87
2022-08-09T10:28:07.052Z,55.29
2022-08-09T10:29:22.475Z,55.67
2022-08-09T10:30:41.883Z,56.39
2022-08-09T10:32:38.079Z,55.05
2022-08-09T10:33:08.054Z,54.91
2022-08-09T10:34:18.987Z,55.47
2022-08-09T10:35:07.022Z,55.38
2022-08-09T10:36:09.626Z,55.55
2022-08-09T10:37:09.644Z,55.52
2022-08-09T10:38:06.985Z,55.67
2022-08-09T10:39:15.457Z,56.01
2022-08-09T10:40:06.002Z,56.51
2022-08-09T10:41:06.038Z,55.75
2022-08-09T10:42:05.951Z,55.94
2022-08-09T10:43:05.948Z,55.54
2022-08-09T10:44:05.947Z,55.61
2022-08-09T10:45:11.836Z,55.52
2022-08-09T10:46:05.930Z,55.83
2022-08-09T10:47:28.139Z,56.84
2022-08-09T10:48:17.295Z,56.76
2022-08-09T10:49:05.925Z,56.44
2022-08-09T10:50:05.898Z,56.80
2022-08-09T10:51:05.894Z,56.03
2022-08-09T10:52:05.910Z,55.99
2022-08-09T10:53:10.283Z,56.09
2022-08-09T10:54:12.137Z,56.50
2022-08-09T10:55:05.887Z,56.96
2022-08-09T10:56:05.862Z,55.97
2022-08-09T10:57:05.856Z,55.65
2022-08-09T10:58:05.853Z,55.42
2022-08-09T10:59:05.867Z,56.28
2022-08-09T11:00:05.866Z,56.27
2022-08-09T11:03:02.962Z,56.54
2022-08-09T11:03:13.559Z,56.05
2022-08-09T11:03:19.485Z,55.41
2022-08-09T11:04:07.235Z,55.76
2022-08-09T11:05:06.884Z,55.99
2022-08-09T11:06:05.866Z,56.49
2022-08-09T11:07:05.789Z,56.04
2022-08-09T11:08:05.809Z,56.31
2022-08-09T11:09:15.839Z,56.71
2022-08-09T11:10:06.849Z,57.91
2022-08-09T11:11:08.908Z,56.40
2022-08-09T11:12:05.750Z,56.08
2022-08-09T11:13:05.749Z,56.94
2022-08-09T11:14:05.741Z,56.00
2022-08-09T11:15:05.760Z,56.87
2022-08-09T11:16:06.983Z,56.23
2022-08-09T11:17:05.743Z,56.48
2022-08-09T11:18:05.735Z,55.88
2022-08-09T11:19:09.626Z,56.77
2022-08-09T11:20:11.463Z,56.44
2022-08-09T11:21:06.692Z,56.33
2022-08-09T11:22:18.686Z,56.03
2022-08-09T11:23:07.158Z,55.91
2022-08-09T11:24:05.694Z,55.79
2022-08-09T11:25:05.680Z,56.51
2022-08-09T11:26:05.667Z,56.59
2022-08-09T11:27:06.759Z,55.26
2022-08-09T11:28:27.738Z,56.84
2022-08-09T11:29:05.641Z,56.86
2022-08-09T11:30:31.954Z,56.66
2022-08-09T11:31:06.878Z,56.06
2022-08-09T11:32:05.618Z,56.51
2022-08-09T11:33:05.634Z,56.80
2022-08-09T11:34:05.626Z,55.79
2022-08-09T11:35:05.604Z,56.78
2022-08-09T11:36:05.597Z,56.64
2022-08-09T11:37:07.220Z,55.96
2022-08-09T11:38:05.617Z,56.87
2022-08-09T11:39:05.604Z,56.24
2022-08-09T11:40:05.716Z,56.82
2022-08-09T11:41:05.561Z,56.76
2022-08-09T11:42:05.550Z,56.06
2022-08-09T11:43:05.552Z,55.52
2022-08-09T11:44:05.556Z,56.90
2022-08-09T11:45:05.536Z,56.26
2022-08-09T11:46:05.515Z,56.31
2022-08-09T11:47:05.509Z,55.59
2022-08-09T11:48:16.034Z,56.72
2022-08-09T11:49:05.671Z,56.44
2022-08-09T11:50:56.945Z,56.61
2022-08-09T11:52:38.676Z,56.60
2022-08-09T11:52:58.993Z,55.79
2022-08-09T11:53:20.872Z,57.29
2022-08-09T11:54:10.878Z,57.61
2022-08-09T11:55:06.459Z,56.63
2022-08-09T11:56:05.468Z,56.42
2022-08-09T11:57:05.466Z,55.80
2022-08-09T11:58:06.076Z,56.09
2022-08-09T11:59:05.437Z,56.15
2022-08-09T12:00:08.248Z,56.13
2022-08-09T12:01:09.022Z,56.72
2022-08-09T12:02:34.674Z,56.99
2022-08-09T12:03:09.762Z,57.42
2022-08-09T12:04:06.435Z,56.96
2022-08-09T12:05:05.991Z,56.48
2022-08-09T12:06:05.411Z,56.10
2022-08-09T12:07:08.284Z,56.88
2022-08-09T12:08:05.371Z,56.44
2022-08-09T12:09:05.388Z,57.65
2022-08-09T12:10:05.387Z,56.95
2022-08-09T12:11:12.672Z,57.08
2022-08-09T12:12:12.120Z,56.88
2022-08-09T12:14:09.189Z,57.29
2022-08-09T12:14:09.319Z,57.13
2022-08-09T12:15:08.824Z,57.00
2022-08-09T12:16:05.313Z,57.19
2022-08-09T12:17:27.906Z,56.66
2022-08-09T12:18:06.306Z,56.14
2022-08-09T12:19:05.303Z,57.46
2022-08-09T12:20:05.304Z,56.66
2022-08-09T12:21:26.235Z,55.68
2022-08-09T12:22:05.279Z,55.66
2022-08-09T12:23:05.272Z,57.00
2022-08-09T12:24:09.609Z,55.38
2022-08-09T12:25:05.264Z,54.93
2022-08-09T12:26:05.267Z,56.34
2022-08-09T12:28:59.533Z,55.75
2022-08-09T12:29:10.359Z,55.95
2022-08-09T12:29:29.792Z,55.46
2022-08-09T12:30:37.026Z,56.34
2022-08-09T12:31:11.350Z,56.29
2022-08-09T12:32:05.208Z,55.00
2022-08-09T12:33:05.195Z,55.88
2022-08-09T12:34:05.218Z,55.28
2022-08-09T12:35:05.191Z,56.35
2022-08-09T12:36:06.172Z,56.04
2022-08-09T12:37:21.689Z,55.98
2022-08-09T12:38:05.175Z,56.45
2022-08-09T12:39:05.214Z,57.75
2022-08-09T12:40:05.589Z,56.89
2022-08-09T12:41:05.464Z,56.94
2022-08-09T12:42:05.135Z,56.14
2022-08-09T12:43:05.154Z,56.91
2022-08-09T12:44:07.170Z,56.63
2022-08-09T12:45:06.996Z,56.65
2022-08-09T12:46:06.143Z,56.61
2022-08-09T12:47:05.102Z,56.83
2022-08-09T12:48:05.097Z,57.08
2022-08-09T12:49:05.090Z,56.43
2022-08-09T12:50:05.086Z,57.01
2022-08-09T12:51:05.079Z,57.57
2022-08-09T12:52:05.083Z,57.74
2022-08-09T12:53:08.954Z,57.54
2022-08-09T12:54:06.052Z,57.15
2022-08-09T12:56:15.024Z,56.30